sensor_id;sensor_type;location;lat;lon;timestamp;P1;durP1;ratioP1;P2;durP2;ratioP2
21820;SDS011;11073;48.586;12.066;2023-05-14T00:00:22;6.55;;;5.28;;
21820;SDS011;11073;48.586;12.066;2023-05-14T00:02:53;6.82;;;5.53;;
21820;SDS011;11073;48.586;12.066;2023-05-14T00:05:22;7.05;;;5.78;;
21820;SDS011;11073;48.586;12.066;2023-05-14T00:07:51;6.70;;;5.03;;
21820;SDS011;11073;48.586;12.066;2023-05-14T00:10:20;6.72;;;5.07;;
21820;SDS011;11073;48.586;12.066;2023-05-14T00:12:49;5.80;;;5.05;;
21820;SDS011;11073;48.586;12.066;2023-05-14T00:15:18;6.15;;;5.55;;
21820;SDS011;11073;48.586;12.066;2023-05-14T00:17:47;6.22;;;5.60;;
21820;SDS011;11073;48.586;12.066;2023-05-14T00:20:19;6.18;;;5.57;;
21820;SDS011;11073;48.586;12.066;2023-05-14T00:22:48;5.78;;;5.15;;
21820;SDS011;11073;48.586;12.066;2023-05-14T00:25:17;5.95;;;5.30;;
21820;SDS011;11073;48.586;12.066;2023-05-14T00:27:45;7.07;;;5.65;;
21820;SDS011;11073;48.586;12.066;2023-05-14T00:30:14;6.10;;;5.50;;
21820;SDS011;11073;48.586;12.066;2023-05-14T00:32:43;6.93;;;5.72;;
21820;SDS011;11073;48.586;12.066;2023-05-14T00:35:12;7.05;;;5.97;;
21820;SDS011;11073;48.586;12.066;2023-05-14T00:37:42;6.75;;;6.13;;
21820;SDS011;11073;48.586;12.066;2023-05-14T00:40:11;6.82;;;6.07;;
21820;SDS011;11073;48.586;12.066;2023-05-14T00:42:40;6.80;;;6.10;;
21820;SDS011;11073;48.586;12.066;2023-05-14T00:45:09;6.30;;;5.57;;
21820;SDS011;11073;48.586;12.066;2023-05-14T00:47:58;6.70;;;5.85;;
21820;SDS011;11073;48.586;12.066;2023-05-14T00:50:27;9.25;;;6.93;;
21820;SDS011;11073;48.586;12.066;2023-05-14T00:52:57;8.10;;;6.30;;
21820;SDS011;11073;48.586;12.066;2023-05-14T00:55:26;7.30;;;6.60;;
21820;SDS011;11073;48.586;12.066;2023-05-14T00:57:57;7.55;;;6.03;;
21820;SDS011;11073;48.586;12.066;2023-05-14T01:00:27;6.75;;;6.05;;
21820;SDS011;11073;48.586;12.066;2023-05-14T01:02:56;6.80;;;5.43;;
21820;SDS011;11073;48.586;12.066;2023-05-14T01:05:28;6.43;;;5.28;;
21820;SDS011;11073;48.586;12.066;2023-05-14T01:08:08;6.15;;;5.55;;
21820;SDS011;11073;48.586;12.066;2023-05-14T01:10:48;6.10;;;5.50;;
21820;SDS011;11073;48.586;12.066;2023-05-14T01:13:23;6.35;;;5.55;;
21820;SDS011;11073;48.586;12.066;2023-05-14T01:15:55;7.05;;;5.60;;
21820;SDS011;11073;48.586;12.066;2023-05-14T01:18:26;6.65;;;6.00;;
21820;SDS011;11073;48.586;12.066;2023-05-14T01:20:55;6.28;;;5.65;;
21820;SDS011;11073;48.586;12.066;2023-05-14T01:23:25;6.57;;;5.88;;
21820;SDS011;11073;48.586;12.066;2023-05-14T01:25:54;7.40;;;6.05;;
21820;SDS011;11073;48.586;12.066;2023-05-14T01:28:24;7.07;;;5.90;;
21820;SDS011;11073;48.586;12.066;2023-05-14T01:31:00;6.07;;;5.18;;
21820;SDS011;11073;48.586;12.066;2023-05-14T01:33:34;5.78;;;5.18;;
21820;SDS011;11073;48.586;12.066;2023-05-14T01:36:04;7.55;;;5.68;;
21820;SDS011;11073;48.586;12.066;2023-05-14T01:38:35;8.00;;;5.32;;
21820;SDS011;11073;48.586;12.066;2023-05-14T01:41:05;7.57;;;5.40;;
21820;SDS011;11073;48.586;12.066;2023-05-14T01:43:35;6.43;;;5.68;;
21820;SDS011;11073;48.586;12.066;2023-05-14T01:46:05;6.70;;;5.32;;
21820;SDS011;11073;48.586;12.066;2023-05-14T01:48:34;7.05;;;6.13;;
21820;SDS011;11073;48.586;12.066;2023-05-14T01:51:03;6.40;;;5.72;;
21820;SDS011;11073;48.586;12.066;2023-05-14T01:53:32;7.60;;;6.43;;
21820;SDS011;11073;48.586;12.066;2023-05-14T01:56:02;8.40;;;5.97;;
21820;SDS011;11073;48.586;12.066;2023-05-14T01:58:32;8.90;;;7.03;;
21820;SDS011;11073;48.586;12.066;2023-05-14T02:01:01;7.97;;;7.10;;
21820;SDS011;11073;48.586;12.066;2023-05-14T02:03:29;9.02;;;6.63;;
21820;SDS011;11073;48.586;12.066;2023-05-14T02:05:58;8.23;;;7.15;;
21820;SDS011;11073;48.586;12.066;2023-05-14T02:08:27;7.55;;;6.75;;
21820;SDS011;11073;48.586;12.066;2023-05-14T02:10:55;7.90;;;7.03;;
21820;SDS011;11073;48.586;12.066;2023-05-14T02:13:26;7.15;;;6.40;;
21820;SDS011;11073;48.586;12.066;2023-05-14T02:15:55;8.13;;;6.75;;
21820;SDS011;11073;48.586;12.066;2023-05-14T02:18:24;7.20;;;6.50;;
21820;SDS011;11073;48.586;12.066;2023-05-14T02:20:53;6.40;;;5.80;;
21820;SDS011;11073;48.586;12.066;2023-05-14T02:23:22;7.28;;;6.57;;
21820;SDS011;11073;48.586;12.066;2023-05-14T02:26:07;6.78;;;6.10;;
21820;SDS011;11073;48.586;12.066;2023-05-14T02:28:38;8.43;;;6.55;;
21820;SDS011;11073;48.586;12.066;2023-05-14T02:31:06;7.78;;;6.53;;
21820;SDS011;11073;48.586;12.066;2023-05-14T02:33:35;7.72;;;6.22;;
21820;SDS011;11073;48.586;12.066;2023-05-14T02:36:04;7.03;;;5.95;;
21820;SDS011;11073;48.586;12.066;2023-05-14T02:38:33;6.70;;;6.10;;
21820;SDS011;11073;48.586;12.066;2023-05-14T02:41:02;6.35;;;5.68;;
21820;SDS011;11073;48.586;12.066;2023-05-14T02:43:31;6.60;;;5.90;;
21820;SDS011;11073;48.586;12.066;2023-05-14T02:46:01;7.55;;;5.57;;
21820;SDS011;11073;48.586;12.066;2023-05-14T02:48:30;6.22;;;5.47;;
21820;SDS011;11073;48.586;12.066;2023-05-14T02:50:59;6.93;;;5.75;;
21820;SDS011;11073;48.586;12.066;2023-05-14T02:53:29;7.13;;;5.75;;
21820;SDS011;11073;48.586;12.066;2023-05-14T02:55:58;5.60;;;5.10;;
21820;SDS011;11073;48.586;12.066;2023-05-14T02:58:27;5.53;;;4.90;;
21820;SDS011;11073;48.586;12.066;2023-05-14T03:00:56;7.10;;;5.05;;
21820;SDS011;11073;48.586;12.066;2023-05-14T03:03:27;5.63;;;5.00;;
21820;SDS011;11073;48.586;12.066;2023-05-14T03:05:57;6.55;;;5.85;;
21820;SDS011;11073;48.586;12.066;2023-05-14T03:08:26;5.15;;;4.65;;
21820;SDS011;11073;48.586;12.066;2023-05-14T03:10:55;5.53;;;4.90;;
21820;SDS011;11073;48.586;12.066;2023-05-14T03:13:24;5.45;;;4.68;;
21820;SDS011;11073;48.586;12.066;2023-05-14T03:15:53;6.80;;;5.28;;
21820;SDS011;11073;48.586;12.066;2023-05-14T03:18:24;4.80;;;4.35;;
21820;SDS011;11073;48.586;12.066;2023-05-14T03:20:55;5.30;;;4.80;;
21820;SDS011;11073;48.586;12.066;2023-05-14T03:23:24;5.53;;;4.93;;
21820;SDS011;11073;48.586;12.066;2023-05-14T03:25:53;5.10;;;4.50;;
21820;SDS011;11073;48.586;12.066;2023-05-14T03:28:23;5.15;;;4.65;;
21820;SDS011;11073;48.586;12.066;2023-05-14T03:30:52;5.22;;;4.57;;
21820;SDS011;11073;48.586;12.066;2023-05-14T03:33:21;5.05;;;4.50;;
21820;SDS011;11073;48.586;12.066;2023-05-14T03:35:50;4.75;;;4.28;;
21820;SDS011;11073;48.586;12.066;2023-05-14T03:38:21;5.68;;;4.78;;
21820;SDS011;11073;48.586;12.066;2023-05-14T03:40:51;5.95;;;4.95;;
21820;SDS011;11073;48.586;12.066;2023-05-14T03:43:20;7.28;;;5.10;;
21820;SDS011;11073;48.586;12.066;2023-05-14T03:45:49;5.55;;;5.03;;
21820;SDS011;11073;48.586;12.066;2023-05-14T03:48:19;6.10;;;4.88;;
21820;SDS011;11073;48.586;12.066;2023-05-14T03:50:47;5.85;;;5.00;;
21820;SDS011;11073;48.586;12.066;2023-05-14T03:53:17;6.38;;;4.80;;
21820;SDS011;11073;48.586;12.066;2023-05-14T03:55:47;4.70;;;4.20;;
21820;SDS011;11073;48.586;12.066;2023-05-14T03:58:16;7.32;;;5.25;;
21820;SDS011;11073;48.586;12.066;2023-05-14T04:00:45;5.32;;;4.82;;
21820;SDS011;11073;48.586;12.066;2023-05-14T04:03:14;5.55;;;4.55;;
21820;SDS011;11073;48.586;12.066;2023-05-14T04:05:43;5.88;;;5.18;;
21820;SDS011;11073;48.586;12.066;2023-05-14T04:08:12;5.18;;;4.65;;
21820;SDS011;11073;48.586;12.066;2023-05-14T04:10:41;6.25;;;4.80;;
21820;SDS011;11073;48.586;12.066;2023-05-14T04:13:11;5.47;;;4.97;;
21820;SDS011;11073;48.586;12.066;2023-05-14T04:15:40;5.50;;;4.90;;
21820;SDS011;11073;48.586;12.066;2023-05-14T04:18:10;5.45;;;4.85;;
21820;SDS011;11073;48.586;12.066;2023-05-14T04:20:39;5.85;;;5.25;;
21820;SDS011;11073;48.586;12.066;2023-05-14T04:23:07;5.85;;;5.25;;
21820;SDS011;11073;48.586;12.066;2023-05-14T04:25:36;5.97;;;5.30;;
21820;SDS011;11073;48.586;12.066;2023-05-14T04:28:05;5.90;;;5.20;;
21820;SDS011;11073;48.586;12.066;2023-05-14T04:30:35;6.68;;;5.10;;
21820;SDS011;11073;48.586;12.066;2023-05-14T04:33:04;4.82;;;4.32;;
21820;SDS011;11073;48.586;12.066;2023-05-14T04:35:33;6.30;;;5.20;;
21820;SDS011;11073;48.586;12.066;2023-05-14T04:38:02;4.95;;;4.43;;
21820;SDS011;11073;48.586;12.066;2023-05-14T04:40:31;6.00;;;5.40;;
21820;SDS011;11073;48.586;12.066;2023-05-14T04:42:59;5.95;;;5.35;;
21820;SDS011;11073;48.586;12.066;2023-05-14T04:45:28;6.28;;;5.57;;
21820;SDS011;11073;48.586;12.066;2023-05-14T04:48:02;6.20;;;5.60;;
21820;SDS011;11073;48.586;12.066;2023-05-14T04:50:31;7.80;;;5.90;;
21820;SDS011;11073;48.586;12.066;2023-05-14T04:53:00;5.35;;;4.85;;
21820;SDS011;11073;48.586;12.066;2023-05-14T04:55:29;5.35;;;4.85;;
21820;SDS011;11073;48.586;12.066;2023-05-14T04:57:58;6.88;;;5.13;;
21820;SDS011;11073;48.586;12.066;2023-05-14T05:00:27;5.70;;;5.13;;
21820;SDS011;11073;48.586;12.066;2023-05-14T05:02:57;5.78;;;5.20;;
21820;SDS011;11073;48.586;12.066;2023-05-14T05:05:28;5.97;;;5.38;;
21820;SDS011;11073;48.586;12.066;2023-05-14T05:07:56;6.90;;;5.47;;
21820;SDS011;11073;48.586;12.066;2023-05-14T05:10:25;6.60;;;5.68;;
21820;SDS011;11073;48.586;12.066;2023-05-14T05:12:54;6.57;;;5.47;;
21820;SDS011;11073;48.586;12.066;2023-05-14T05:15:23;6.32;;;5.38;;
21820;SDS011;11073;48.586;12.066;2023-05-14T05:17:53;7.22;;;4.82;;
21820;SDS011;11073;48.586;12.066;2023-05-14T05:20:22;5.80;;;5.22;;
21820;SDS011;11073;48.586;12.066;2023-05-14T05:22:53;5.50;;;4.88;;
21820;SDS011;11073;48.586;12.066;2023-05-14T05:25:22;5.13;;;4.63;;
21820;SDS011;11073;48.586;12.066;2023-05-14T05:27:51;5.72;;;5.03;;
21820;SDS011;11073;48.586;12.066;2023-05-14T05:30:19;5.72;;;5.13;;
21820;SDS011;11073;48.586;12.066;2023-05-14T05:32:49;5.68;;;5.07;;
21820;SDS011;11073;48.586;12.066;2023-05-14T05:35:18;5.53;;;5.03;;
21820;SDS011;11073;48.586;12.066;2023-05-14T05:37:47;6.82;;;4.78;;
21820;SDS011;11073;48.586;12.066;2023-05-14T05:40:17;8.43;;;5.47;;
21820;SDS011;11073;48.586;12.066;2023-05-14T05:42:46;5.57;;;4.93;;
21820;SDS011;11073;48.586;12.066;2023-05-14T05:45:15;7.15;;;4.85;;
21820;SDS011;11073;48.586;12.066;2023-05-14T05:47:44;6.43;;;5.28;;
21820;SDS011;11073;48.586;12.066;2023-05-14T05:50:13;5.70;;;5.13;;
21820;SDS011;11073;48.586;12.066;2023-05-14T05:52:43;6.57;;;5.90;;
21820;SDS011;11073;48.586;12.066;2023-05-14T05:55:12;6.32;;;5.45;;
21820;SDS011;11073;48.586;12.066;2023-05-14T05:57:42;10.13;;;6.70;;
21820;SDS011;11073;48.586;12.066;2023-05-14T06:00:11;7.85;;;6.03;;
21820;SDS011;11073;48.586;12.066;2023-05-14T06:02:41;6.97;;;6.25;;
21820;SDS011;11073;48.586;12.066;2023-05-14T06:05:10;8.25;;;6.07;;
21820;SDS011;11073;48.586;12.066;2023-05-14T06:07:39;7.50;;;6.70;;
21820;SDS011;11073;48.586;12.066;2023-05-14T06:10:08;9.68;;;7.95;;
21820;SDS011;11073;48.586;12.066;2023-05-14T06:12:37;9.52;;;7.55;;
21820;SDS011;11073;48.586;12.066;2023-05-14T06:15:08;8.68;;;6.97;;
21820;SDS011;11073;48.586;12.066;2023-05-14T06:17:38;9.52;;;8.52;;
21820;SDS011;11073;48.586;12.066;2023-05-14T06:20:07;8.93;;;7.68;;
21820;SDS011;11073;48.586;12.066;2023-05-14T06:22:37;9.75;;;7.93;;
21820;SDS011;11073;48.586;12.066;2023-05-14T06:25:06;8.63;;;7.72;;
21820;SDS011;11073;48.586;12.066;2023-05-14T06:27:35;8.70;;;7.80;;
21820;SDS011;11073;48.586;12.066;2023-05-14T06:30:05;9.50;;;8.50;;
21820;SDS011;11073;48.586;12.066;2023-05-14T06:32:36;8.70;;;6.95;;
21820;SDS011;11073;48.586;12.066;2023-05-14T06:35:05;8.73;;;7.80;;
21820;SDS011;11073;48.586;12.066;2023-05-14T06:37:35;9.07;;;7.70;;
21820;SDS011;11073;48.586;12.066;2023-05-14T06:40:05;8.02;;;7.25;;
21820;SDS011;11073;48.586;12.066;2023-05-14T06:42:34;7.72;;;7.03;;
21820;SDS011;11073;48.586;12.066;2023-05-14T06:45:04;8.32;;;7.53;;
21820;SDS011;11073;48.586;12.066;2023-05-14T06:47:34;7.28;;;6.57;;
21820;SDS011;11073;48.586;12.066;2023-05-14T06:50:04;8.20;;;7.28;;
21820;SDS011;11073;48.586;12.066;2023-05-14T06:52:36;8.23;;;6.78;;
21820;SDS011;11073;48.586;12.066;2023-05-14T06:55:06;6.72;;;6.10;;
21820;SDS011;11073;48.586;12.066;2023-05-14T06:57:35;7.65;;;6.30;;
21820;SDS011;11073;48.586;12.066;2023-05-14T07:00:08;6.60;;;5.93;;
21820;SDS011;11073;48.586;12.066;2023-05-14T07:02:39;8.27;;;6.45;;
21820;SDS011;11073;48.586;12.066;2023-05-14T07:05:09;7.20;;;6.50;;
21820;SDS011;11073;48.586;12.066;2023-05-14T07:07:38;7.78;;;7.05;;
21820;SDS011;11073;48.586;12.066;2023-05-14T07:10:08;7.78;;;6.97;;
21820;SDS011;11073;48.586;12.066;2023-05-14T07:12:37;8.00;;;6.90;;
21820;SDS011;11073;48.586;12.066;2023-05-14T07:15:06;7.05;;;6.35;;
21820;SDS011;11073;48.586;12.066;2023-05-14T07:17:36;7.15;;;6.45;;
21820;SDS011;11073;48.586;12.066;2023-05-14T07:20:07;8.00;;;7.00;;
21820;SDS011;11073;48.586;12.066;2023-05-14T07:22:37;8.90;;;7.78;;
21820;SDS011;11073;48.586;12.066;2023-05-14T07:25:06;8.98;;;7.50;;
21820;SDS011;11073;48.586;12.066;2023-05-14T07:27:35;8.30;;;6.63;;
21820;SDS011;11073;48.586;12.066;2023-05-14T07:30:06;9.18;;;8.27;;
21820;SDS011;11073;48.586;12.066;2023-05-14T07:32:35;8.45;;;7.63;;
21820;SDS011;11073;48.586;12.066;2023-05-14T07:35:04;8.30;;;7.50;;
21820;SDS011;11073;48.586;12.066;2023-05-14T07:37:36;7.75;;;6.95;;
21820;SDS011;11073;48.586;12.066;2023-05-14T07:40:06;7.57;;;6.43;;
21820;SDS011;11073;48.586;12.066;2023-05-14T07:42:35;7.82;;;7.00;;
21820;SDS011;11073;48.586;12.066;2023-05-14T07:45:04;6.53;;;5.93;;
21820;SDS011;11073;48.586;12.066;2023-05-14T07:47:33;8.60;;;6.80;;
21820;SDS011;11073;48.586;12.066;2023-05-14T07:50:03;7.30;;;5.97;;
21820;SDS011;11073;48.586;12.066;2023-05-14T07:52:34;7.85;;;6.47;;
21820;SDS011;11073;48.586;12.066;2023-05-14T07:55:03;8.38;;;7.20;;
21820;SDS011;11073;48.586;12.066;2023-05-14T07:57:33;7.57;;;6.78;;
21820;SDS011;11073;48.586;12.066;2023-05-14T08:00:01;7.20;;;6.50;;
21820;SDS011;11073;48.586;12.066;2023-05-14T08:02:38;6.63;;;6.00;;
21820;SDS011;11073;48.586;12.066;2023-05-14T08:05:07;8.32;;;5.85;;
21820;SDS011;11073;48.586;12.066;2023-05-14T08:07:39;7.80;;;6.32;;
21820;SDS011;11073;48.586;12.066;2023-05-14T08:10:09;7.43;;;6.53;;
21820;SDS011;11073;48.586;12.066;2023-05-14T08:12:38;6.38;;;5.60;;
21820;SDS011;11073;48.586;12.066;2023-05-14T08:15:08;7.03;;;6.03;;
21820;SDS011;11073;48.586;12.066;2023-05-14T08:17:37;6.15;;;5.55;;
21820;SDS011;11073;48.586;12.066;2023-05-14T08:20:07;7.18;;;6.03;;
21820;SDS011;11073;48.586;12.066;2023-05-14T08:22:39;7.82;;;6.65;;
21820;SDS011;11073;48.586;12.066;2023-05-14T08:25:08;7.10;;;6.32;;
21820;SDS011;11073;48.586;12.066;2023-05-14T08:27:37;7.00;;;6.28;;
21820;SDS011;11073;48.586;12.066;2023-05-14T08:30:06;7.93;;;7.13;;
21820;SDS011;11073;48.586;12.066;2023-05-14T08:32:36;8.30;;;6.85;;
21820;SDS011;11073;48.586;12.066;2023-05-14T08:35:06;7.32;;;6.57;;
21820;SDS011;11073;48.586;12.066;2023-05-14T08:37:35;8.18;;;7.38;;
21820;SDS011;11073;48.586;12.066;2023-05-14T08:40:07;10.20;;;8.48;;
21820;SDS011;11073;48.586;12.066;2023-05-14T08:42:36;9.05;;;8.25;;
21820;SDS011;11073;48.586;12.066;2023-05-14T08:45:08;9.90;;;8.90;;
21820;SDS011;11073;48.586;12.066;2023-05-14T08:47:44;11.02;;;9.93;;
21820;SDS011;11073;48.586;12.066;2023-05-14T08:50:17;10.27;;;9.18;;
21820;SDS011;11073;48.586;12.066;2023-05-14T08:52:48;11.13;;;10.05;;
21820;SDS011;11073;48.586;12.066;2023-05-14T08:55:19;10.32;;;9.23;;
21820;SDS011;11073;48.586;12.066;2023-05-14T08:57:48;9.20;;;8.30;;
21820;SDS011;11073;48.586;12.066;2023-05-14T09:00:18;9.93;;;9.02;;
21820;SDS011;11073;48.586;12.066;2023-05-14T09:02:48;10.05;;;9.05;;
21820;SDS011;11073;48.586;12.066;2023-05-14T09:05:18;11.30;;;10.07;;
21820;SDS011;11073;48.586;12.066;2023-05-14T09:07:48;9.10;;;8.20;;
21820;SDS011;11073;48.586;12.066;2023-05-14T09:10:19;8.93;;;7.93;;
21820;SDS011;11073;48.586;12.066;2023-05-14T09:12:49;7.95;;;7.18;;
21820;SDS011;11073;48.586;12.066;2023-05-14T09:15:18;8.98;;;8.07;;
21820;SDS011;11073;48.586;12.066;2023-05-14T09:17:47;10.07;;;9.07;;
21820;SDS011;11073;48.586;12.066;2023-05-14T09:20:16;8.50;;;7.70;;
21820;SDS011;11073;48.586;12.066;2023-05-14T09:22:45;10.13;;;7.60;;
21820;SDS011;11073;48.586;12.066;2023-05-14T09:25:14;8.15;;;7.35;;
21820;SDS011;11073;48.586;12.066;2023-05-14T09:27:46;7.70;;;6.40;;
21820;SDS011;11073;48.586;12.066;2023-05-14T09:30:16;6.93;;;6.28;;
21820;SDS011;11073;48.586;12.066;2023-05-14T09:32:45;6.05;;;5.45;;
21820;SDS011;11073;48.586;12.066;2023-05-14T09:35:18;5.18;;;4.68;;
21820;SDS011;11073;48.586;12.066;2023-05-14T09:40:50;5.35;;;4.85;;
21820;SDS011;11073;48.586;12.066;2023-05-14T09:43:20;4.65;;;4.18;;
21820;SDS011;11073;48.586;12.066;2023-05-14T09:45:49;5.28;;;4.30;;
21820;SDS011;11073;48.586;12.066;2023-05-14T09:48:19;5.50;;;5.00;;
21820;SDS011;11073;48.586;12.066;2023-05-14T09:50:48;4.70;;;4.00;;
21820;SDS011;11073;48.586;12.066;2023-05-14T09:53:18;4.63;;;4.22;;
21820;SDS011;11073;48.586;12.066;2023-05-14T09:55:46;5.22;;;4.72;;
21820;SDS011;11073;48.586;12.066;2023-05-14T09:58:15;5.55;;;4.35;;
21820;SDS011;11073;48.586;12.066;2023-05-14T10:00:46;5.05;;;4.35;;
21820;SDS011;11073;48.586;12.066;2023-05-14T10:03:15;4.85;;;4.43;;
21820;SDS011;11073;48.586;12.066;2023-05-14T10:05:48;4.32;;;3.92;;
21820;SDS011;11073;48.586;12.066;2023-05-14T10:08:19;5.22;;;4.63;;
21820;SDS011;11073;48.586;12.066;2023-05-14T10:10:52;4.57;;;4.18;;
21820;SDS011;11073;48.586;12.066;2023-05-14T10:13:22;5.18;;;4.68;;
21820;SDS011;11073;48.586;12.066;2023-05-14T10:15:56;4.95;;;4.53;;
21820;SDS011;11073;48.586;12.066;2023-05-14T10:18:35;5.47;;;5.00;;
21820;SDS011;11073;48.586;12.066;2023-05-14T10:21:09;5.28;;;4.78;;
21820;SDS011;11073;48.586;12.066;2023-05-14T10:23:38;5.32;;;4.82;;
21820;SDS011;11073;48.586;12.066;2023-05-14T10:26:08;5.60;;;5.00;;
21820;SDS011;11073;48.586;12.066;2023-05-14T10:28:38;5.57;;;4.30;;
21820;SDS011;11073;48.586;12.066;2023-05-14T10:31:09;5.28;;;4.60;;
21820;SDS011;11073;48.586;12.066;2023-05-14T10:33:45;5.07;;;4.50;;
21820;SDS011;11073;48.586;12.066;2023-05-14T10:36:17;10.68;;;5.45;;
21820;SDS011;11073;48.586;12.066;2023-05-14T10:38:46;4.95;;;4.22;;
21820;SDS011;11073;48.586;12.066;2023-05-14T10:41:22;4.47;;;4.07;;
21820;SDS011;11073;48.586;12.066;2023-05-14T10:43:51;4.88;;;4.20;;
21820;SDS011;11073;48.586;12.066;2023-05-14T10:46:21;4.63;;;3.88;;
21820;SDS011;11073;48.586;12.066;2023-05-14T10:48:51;4.28;;;3.50;;
21820;SDS011;11073;48.586;12.066;2023-05-14T10:51:20;3.58;;;3.28;;
21820;SDS011;11073;48.586;12.066;2023-05-14T10:53:49;3.85;;;3.47;;
21820;SDS011;11073;48.586;12.066;2023-05-14T10:56:18;3.55;;;3.25;;
21820;SDS011;11073;48.586;12.066;2023-05-14T10:58:47;3.55;;;3.25;;
21820;SDS011;11073;48.586;12.066;2023-05-14T11:01:17;4.05;;;3.65;;
21820;SDS011;11073;48.586;12.066;2023-05-14T11:03:47;4.18;;;3.10;;
21820;SDS011;11073;48.586;12.066;2023-05-14T11:06:21;3.22;;;2.92;;
21820;SDS011;11073;48.586;12.066;2023-05-14T11:08:50;4.50;;;3.15;;
21820;SDS011;11073;48.586;12.066;2023-05-14T11:11:20;3.92;;;3.00;;
21820;SDS011;11073;48.586;12.066;2023-05-14T11:13:49;4.03;;;3.58;;
21820;SDS011;11073;48.586;12.066;2023-05-14T11:16:20;3.60;;;3.15;;
21820;SDS011;11073;48.586;12.066;2023-05-14T11:19:00;3.80;;;3.13;;
21820;SDS011;11073;48.586;12.066;2023-05-14T11:21:30;4.50;;;3.67;;
21820;SDS011;11073;48.586;12.066;2023-05-14T11:23:59;4.30;;;3.90;;
21820;SDS011;11073;48.586;12.066;2023-05-14T11:26:28;3.25;;;2.70;;
21820;SDS011;11073;48.586;12.066;2023-05-14T11:28:56;2.88;;;2.67;;
21820;SDS011;11073;48.586;12.066;2023-05-14T11:31:25;3.30;;;3.00;;
21820;SDS011;11073;48.586;12.066;2023-05-14T11:33:54;7.32;;;4.82;;
21820;SDS011;11073;48.586;12.066;2023-05-14T11:36:24;3.40;;;3.10;;
21820;SDS011;11073;48.586;12.066;2023-05-14T11:38:53;8.82;;;6.32;;
21820;SDS011;11073;48.586;12.066;2023-05-14T11:41:22;3.13;;;2.83;;
21820;SDS011;11073;48.586;12.066;2023-05-14T11:43:52;2.88;;;2.38;;
21820;SDS011;11073;48.586;12.066;2023-05-14T11:46:21;2.95;;;2.63;;
21820;SDS011;11073;48.586;12.066;2023-05-14T11:48:50;2.63;;;2.30;;
21820;SDS011;11073;48.586;12.066;2023-05-14T11:51:20;4.70;;;2.50;;
21820;SDS011;11073;48.586;12.066;2023-05-14T11:53:50;2.80;;;2.60;;
21820;SDS011;11073;48.586;12.066;2023-05-14T11:56:19;3.28;;;2.70;;
21820;SDS011;11073;48.586;12.066;2023-05-14T11:58:53;3.50;;;2.80;;
21820;SDS011;11073;48.586;12.066;2023-05-14T12:01:24;3.30;;;3.00;;
21820;SDS011;11073;48.586;12.066;2023-05-14T12:03:54;3.30;;;2.28;;
21820;SDS011;11073;48.586;12.066;2023-05-14T12:06:29;3.13;;;2.13;;
21820;SDS011;11073;48.586;12.066;2023-05-14T12:08:59;2.80;;;2.55;;
21820;SDS011;11073;48.586;12.066;2023-05-14T12:11:29;2.50;;;2.30;;
21820;SDS011;11073;48.586;12.066;2023-05-14T12:13:58;3.00;;;2.42;;
21820;SDS011;11073;48.586;12.066;2023-05-14T12:16:28;3.13;;;2.83;;
21820;SDS011;11073;48.586;12.066;2023-05-14T12:18:59;3.03;;;2.55;;
21820;SDS011;11073;48.586;12.066;2023-05-14T12:21:29;3.90;;;2.78;;
21820;SDS011;11073;48.586;12.066;2023-05-14T12:24:00;7.65;;;2.38;;
21820;SDS011;11073;48.586;12.066;2023-05-14T12:26:31;3.28;;;2.55;;
21820;SDS011;11073;48.586;12.066;2023-05-14T12:29:00;2.35;;;2.15;;
21820;SDS011;11073;48.586;12.066;2023-05-14T12:31:31;3.50;;;3.20;;
21820;SDS011;11073;48.586;12.066;2023-05-14T12:34:01;3.08;;;2.78;;
21820;SDS011;11073;48.586;12.066;2023-05-14T12:36:30;4.30;;;3.55;;
21820;SDS011;11073;48.586;12.066;2023-05-14T12:39:00;7.20;;;4.28;;
21820;SDS011;11073;48.586;12.066;2023-05-14T12:41:32;3.13;;;2.55;;
21820;SDS011;11073;48.586;12.066;2023-05-14T12:44:01;3.03;;;2.72;;
21820;SDS011;11073;48.586;12.066;2023-05-14T12:46:31;2.47;;;2.28;;
21820;SDS011;11073;48.586;12.066;2023-05-14T12:49:01;4.10;;;3.50;;
21820;SDS011;11073;48.586;12.066;2023-05-14T12:51:30;4.95;;;3.20;;
21820;SDS011;11073;48.586;12.066;2023-05-14T12:54:01;3.28;;;2.92;;
21820;SDS011;11073;48.586;12.066;2023-05-14T12:56:29;3.67;;;3.38;;
21820;SDS011;11073;48.586;12.066;2023-05-14T12:58:58;4.10;;;2.60;;
21820;SDS011;11073;48.586;12.066;2023-05-14T13:01:27;4.90;;;3.75;;
21820;SDS011;11073;48.586;12.066;2023-05-14T13:03:56;2.60;;;2.40;;
21820;SDS011;11073;48.586;12.066;2023-05-14T13:06:25;2.67;;;2.47;;
21820;SDS011;11073;48.586;12.066;2023-05-14T13:08:54;2.75;;;1.90;;
21820;SDS011;11073;48.586;12.066;2023-05-14T13:11:25;2.33;;;2.15;;
21820;SDS011;11073;48.586;12.066;2023-05-14T13:13:55;3.55;;;1.90;;
21820;SDS011;11073;48.586;12.066;2023-05-14T13:16:24;2.78;;;1.70;;
21820;SDS011;11073;48.586;12.066;2023-05-14T13:18:53;2.25;;;2.05;;
21820;SDS011;11073;48.586;12.066;2023-05-14T13:21:23;2.70;;;1.90;;
21820;SDS011;11073;48.586;12.066;2023-05-14T13:23:52;3.17;;;1.92;;
21820;SDS011;11073;48.586;12.066;2023-05-14T13:26:21;2.70;;;2.20;;
21820;SDS011;11073;48.586;12.066;2023-05-14T13:28:54;3.47;;;2.20;;
21820;SDS011;11073;48.586;12.066;2023-05-14T13:31:23;2.17;;;2.00;;
21820;SDS011;11073;48.586;12.066;2023-05-14T13:33:52;2.60;;;2.03;;
21820;SDS011;11073;48.586;12.066;2023-05-14T13:36:21;2.65;;;2.45;;
21820;SDS011;11073;48.586;12.066;2023-05-14T13:38:50;2.05;;;1.88;;
21820;SDS011;11073;48.586;12.066;2023-05-14T13:41:19;2.90;;;2.25;;
21820;SDS011;11073;48.586;12.066;2023-05-14T13:43:48;3.97;;;2.05;;
21820;SDS011;11073;48.586;12.066;2023-05-14T13:46:18;2.75;;;2.42;;
21820;SDS011;11073;48.586;12.066;2023-05-14T13:48:48;2.35;;;1.95;;
21820;SDS011;11073;48.586;12.066;2023-05-14T13:51:17;2.40;;;2.20;;
21820;SDS011;11073;48.586;12.066;2023-05-14T13:53:45;2.10;;;2.00;;
21820;SDS011;11073;48.586;12.066;2023-05-14T13:56:14;2.40;;;2.10;;
21820;SDS011;11073;48.586;12.066;2023-05-14T13:58:43;2.35;;;2.15;;
21820;SDS011;11073;48.586;12.066;2023-05-14T14:01:12;3.15;;;2.35;;
21820;SDS011;11073;48.586;12.066;2023-05-14T14:03:43;1.90;;;1.70;;
21820;SDS011;11073;48.586;12.066;2023-05-14T14:06:11;2.35;;;1.63;;
21820;SDS011;11073;48.586;12.066;2023-05-14T14:08:40;2.42;;;2.00;;
21820;SDS011;11073;48.586;12.066;2023-05-14T14:11:09;2.10;;;1.90;;
21820;SDS011;11073;48.586;12.066;2023-05-14T14:13:39;2.10;;;1.52;;
21820;SDS011;11073;48.586;12.066;2023-05-14T14:16:12;1.80;;;1.70;;
21820;SDS011;11073;48.586;12.066;2023-05-14T14:18:42;2.97;;;1.45;;
21820;SDS011;11073;48.586;12.066;2023-05-14T14:21:11;2.40;;;1.90;;
21820;SDS011;11073;48.586;12.066;2023-05-14T14:23:44;2.65;;;1.90;;
21820;SDS011;11073;48.586;12.066;2023-05-14T14:26:14;2.88;;;1.90;;
21820;SDS011;11073;48.586;12.066;2023-05-14T14:28:42;2.00;;;1.73;;
21820;SDS011;11073;48.586;12.066;2023-05-14T14:31:11;1.73;;;1.63;;
21820;SDS011;11073;48.586;12.066;2023-05-14T14:33:41;2.40;;;1.90;;
21820;SDS011;11073;48.586;12.066;2023-05-14T14:36:11;1.75;;;1.65;;
21820;SDS011;11073;48.586;12.066;2023-05-14T14:38:40;3.15;;;1.65;;
21820;SDS011;11073;48.586;12.066;2023-05-14T14:41:08;1.88;;;1.60;;
21820;SDS011;11073;48.586;12.066;2023-05-14T14:43:38;2.13;;;1.75;;
21820;SDS011;11073;48.586;12.066;2023-05-14T14:46:07;2.85;;;2.08;;
21820;SDS011;11073;48.586;12.066;2023-05-14T14:48:36;1.35;;;1.25;;
21820;SDS011;11073;48.586;12.066;2023-05-14T14:51:07;2.10;;;1.60;;